createdAt,value
2022-08-10T00:00:16.878Z,99.90
2022-08-10T00:00:58.564Z,99.90
2022-08-10T00:01:40.475Z,99.90
2022-08-10T00:02:22.401Z,99.90
2022-08-10T00:03:07.586Z,99.90
2022-08-10T00:03:49.358Z,99.90
2022-08-10T00:04:31.064Z,99.90
2022-08-10T00:05:12.839Z,99.90
2022-08-10T00:05:56.489Z,99.90
2022-08-10T00:06:38.390Z,99.90
2022-08-10T00:07:20.154Z,99.90
2022-08-10T00:08:02.155Z,99.90
2022-08-10T00:08:44.186Z,99.90
2022-08-10T00:09:25.939Z,99.90
2022-08-10T00:10:08.245Z,99.90
2022-08-10T00:10:49.982Z,99.90
2022-08-10T00:11:31.692Z,99.90
2022-08-10T00:12:13.418Z,99.90
2022-08-10T00:12:55.392Z,99.90
2022-08-10T00:13:37.523Z,99.90
2022-08-10T00:14:19.431Z,99.90
2022-08-10T00:15:01.328Z,99.90
2022-08-10T00:15:44.662Z,99.90
2022-08-10T00:16:36.129Z,99.90
2022-08-10T00:17:17.832Z,99.90
2022-08-10T00:17:59.627Z,99.90
2022-08-10T00:18:41.592Z,99.90
2022-08-10T00:19:23.339Z,99.90
2022-08-10T00:20:08.690Z,99.90
2022-08-10T00:20:50.658Z,99.90
2022-08-10T00:21:32.361Z,99.90
2022-08-10T00:22:16.890Z,99.90
2022-08-10T00:22:59.199Z,99.90
2022-08-10T00:23:40.902Z,99.90
2022-08-10T00:24:22.731Z,99.90
2022-08-10T00:25:05.906Z,99.90
2022-08-10T00:25:47.583Z,99.90
2022-08-10T00:27:52.779Z,99.90
2022-08-10T00:27:52.986Z,99.90
2022-08-10T00:28:33.392Z,99.90
2022-08-10T00:29:15.125Z,99.90
2022-08-10T00:29:57.215Z,99.90
2022-08-10T00:30:38.994Z,99.90
2022-08-10T00:31:20.786Z,99.90
2022-08-10T00:32:03.099Z,99.90
2022-08-10T00:32:44.807Z,99.90
2022-08-10T00:33:26.510Z,99.90
2022-08-10T00:34:08.221Z,99.90
2022-08-10T00:34:50.421Z,99.90
2022-08-10T00:35:32.317Z,99.90
2022-08-10T00:36:13.997Z,99.90
2022-08-10T00:36:56.544Z,99.90
2022-08-10T00:37:38.270Z,99.90
2022-08-10T00:38:19.988Z,99.90
2022-08-10T00:39:01.736Z,99.90
2022-08-10T00:39:44.065Z,99.90
2022-08-10T00:40:37.519Z,99.90
2022-08-10T00:41:19.896Z,99.90
2022-08-10T00:42:07.597Z,99.90
2022-08-10T00:42:49.856Z,99.90
2022-08-10T00:43:31.960Z,99.90
2022-08-10T00:44:13.729Z,99.90
2022-08-10T00:44:55.587Z,99.90
2022-08-10T00:45:37.529Z,99.90
2022-08-10T00:46:19.215Z,99.90
2022-08-10T00:47:00.961Z,99.90
2022-08-10T00:47:42.656Z,99.90
2022-08-10T00:48:24.382Z,99.90
2022-08-10T00:49:09.939Z,99.90
2022-08-10T00:49:51.740Z,99.90
2022-08-10T00:50:34.242Z,99.90
2022-08-10T00:51:15.973Z,99.90
2022-08-10T00:51:57.756Z,99.90
2022-08-10T00:52:40.115Z,99.90
2022-08-10T00:53:21.806Z,99.90
2022-08-10T00:54:03.667Z,99.90
2022-08-10T00:54:47.158Z,99.90
2022-08-10T00:55:29.003Z,99.90
2022-08-10T00:57:12.591Z,99.90
2022-08-10T00:57:18.340Z,99.90
2022-08-10T00:58:00.714Z,99.90
2022-08-10T00:58:43.055Z,99.90
2022-08-10T00:59:24.851Z,99.90
2022-08-10T01:00:08.049Z,99.90
2022-08-10T01:00:49.717Z,99.90
2022-08-10T01:02:09.564Z,99.90
2022-08-10T01:02:33.612Z,99.90
2022-08-10T01:03:15.582Z,99.90
2022-08-10T01:04:39.611Z,99.90
2022-08-10T01:05:11.303Z,99.90
2022-08-10T01:05:58.579Z,99.90
2022-08-10T01:07:04.701Z,99.90
2022-08-10T01:08:08.201Z,99.90
2022-08-10T01:09:15.983Z,99.90
2022-08-10T01:10:06.219Z,99.90
2022-08-10T01:12:34.333Z,99.90
2022-08-10T01:12:39.817Z,99.90
2022-08-10T01:13:37.751Z,99.90
2022-08-10T01:14:48.779Z,99.90
2022-08-10T01:15:38.574Z,99.90
2022-08-10T01:16:36.776Z,99.90
2022-08-10T01:17:21.429Z,99.90
2022-08-10T01:18:17.578Z,99.90
2022-08-10T01:19:18.215Z,99.90
2022-08-10T01:20:30.054Z,99.90
2022-08-10T01:22:02.523Z,99.90
2022-08-10T01:22:57.315Z,99.90
2022-08-10T01:24:24.960Z,99.90
2022-08-10T01:26:12.538Z,99.90
2022-08-10T01:26:56.608Z,99.90
2022-08-10T01:27:38.469Z,99.90
2022-08-10T01:28:49.470Z,99.90
2022-08-10T01:29:53.526Z,99.90
2022-08-10T01:30:36.171Z,99.90
2022-08-10T01:31:24.161Z,99.90
2022-08-10T01:32:09.252Z,99.90
2022-08-10T01:33:10.741Z,99.90
2022-08-10T01:33:58.736Z,99.90
2022-08-10T01:34:55.483Z,99.90
2022-08-10T01:35:49.861Z,99.90
2022-08-10T01:36:55.015Z,99.90
2022-08-10T01:37:43.846Z,99.90
2022-08-10T01:38:38.277Z,99.90
2022-08-10T01:39:25.036Z,99.90
2022-08-10T01:40:09.817Z,99.90
2022-08-10T01:41:02.899Z,99.90
2022-08-10T01:41:47.316Z,99.90
2022-08-10T01:42:33.084Z,99.90
2022-08-10T01:43:17.361Z,99.90
2022-08-10T01:44:05.475Z,99.90
2022-08-10T01:44:52.302Z,99.90
2022-08-10T01:45:44.460Z,99.90
2022-08-10T01:46:29.847Z,99.90
2022-08-10T01:47:34.287Z,99.90
2022-08-10T01:48:32.380Z,99.90
2022-08-10T01:49:18.281Z,99.90
2022-08-10T01:50:04.692Z,99.90
2022-08-10T01:50:58.681Z,99.90
2022-08-10T01:51:49.715Z,99.90
2022-08-10T01:52:33.277Z,99.90
2022-08-10T01:53:23.438Z,99.90
2022-08-10T01:54:26.119Z,99.90
2022-08-10T01:55:10.209Z,99.90
2022-08-10T01:55:55.525Z,99.90
2022-08-10T01:56:40.532Z,99.90
2022-08-10T01:57:24.404Z,99.90
2022-08-10T01:58:09.005Z,99.90
2022-08-10T01:58:55.930Z,99.90
2022-08-10T01:59:41.651Z,99.90
2022-08-10T02:00:39.092Z,99.90
2022-08-10T02:01:26.042Z,99.90
2022-08-10T02:02:13.840Z,99.90
2022-08-10T02:02:57.730Z,99.90
2022-08-10T02:04:05.427Z,99.90
2022-08-10T02:04:47.320Z,99.90
2022-08-10T02:05:30.873Z,99.90
2022-08-10T02:06:13.865Z,99.90
2022-08-10T02:06:56.866Z,99.90
2022-08-10T02:07:40.542Z,99.90
2022-08-10T02:08:24.857Z,99.90
2022-08-10T02:09:08.143Z,99.90
2022-08-10T02:09:54.940Z,99.90
2022-08-10T02:10:39.503Z,99.90
2022-08-10T02:11:24.247Z,99.90
2022-08-10T02:12:09.106Z,99.90
2022-08-10T02:12:56.453Z,99.90
2022-08-10T02:13:39.788Z,99.90
2022-08-10T02:14:23.830Z,99.90
2022-08-10T02:15:16.561Z,99.90
2022-08-10T02:16:01.526Z,99.90
2022-08-10T02:16:48.023Z,99.90
2022-08-10T02:17:59.322Z,99.90
2022-08-10T02:18:39.158Z,99.90
2022-08-10T02:19:24.349Z,99.90
2022-08-10T02:20:11.122Z,99.90
2022-08-10T02:20:54.504Z,99.90
2022-08-10T02:21:37.749Z,99.90
2022-08-10T02:22:40.350Z,99.90
2022-08-10T02:23:28.910Z,99.90
2022-08-10T02:24:13.700Z,99.90
2022-08-10T02:24:57.363Z,99.90
2022-08-10T02:25:43.823Z,99.90
2022-08-10T02:26:26.894Z,99.90
2022-08-10T02:27:09.753Z,99.90
2022-08-10T02:27:53.633Z,99.90
2022-08-10T02:28:37.331Z,99.90
2022-08-10T02:29:20.321Z,99.90
2022-08-10T02:30:04.876Z,99.90
2022-08-10T02:30:49.001Z,99.90
2022-08-10T02:31:31.245Z,99.90
2022-08-10T02:32:23.787Z,99.90
2022-08-10T02:33:21.970Z,99.90
2022-08-10T02:34:08.298Z,99.90
2022-08-10T02:34:51.226Z,99.90
2022-08-10T02:35:54.604Z,99.90
2022-08-10T02:36:43.891Z,99.90
2022-08-10T02:37:27.991Z,99.90
2022-08-10T02:38:12.404Z,99.90
2022-08-10T02:39:00.475Z,99.90
2022-08-10T02:39:42.888Z,99.90
2022-08-10T02:42:18.646Z,99.90
2022-08-10T02:45:03.266Z,99.90
2022-08-10T02:45:19.468Z,99.90
2022-08-10T02:45:20.128Z,99.90
2022-08-10T02:45:29.070Z,99.90
2022-08-10T02:46:21.042Z,99.90
2022-08-10T02:47:10.285Z,99.90
2022-08-10T02:48:03.067Z,99.90
2022-08-10T02:48:48.338Z,99.90
2022-08-10T02:49:36.955Z,99.90
2022-08-10T02:50:34.848Z,99.90
2022-08-10T02:52:07.051Z,99.90
2022-08-10T02:52:43.993Z,99.90
2022-08-10T02:53:49.572Z,99.90
2022-08-10T02:54:43.243Z,99.90
2022-08-10T02:55:44.961Z,99.90
2022-08-10T02:56:32.682Z,99.90
2022-08-10T02:57:20.725Z,99.90
2022-08-10T02:58:16.623Z,99.90
2022-08-10T02:59:10.107Z,99.90
2022-08-10T02:59:56.010Z,99.90
2022-08-10T03:00:52.309Z,99.90
2022-08-10T03:01:40.735Z,99.90
2022-08-10T03:02:34.392Z,99.90
2022-08-10T03:03:21.217Z,99.90
2022-08-10T03:04:07.695Z,99.90
2022-08-10T03:04:55.543Z,99.90
2022-08-10T03:05:40.462Z,99.90
2022-08-10T03:06:25.597Z,99.90
2022-08-10T03:07:13.335Z,99.90
2022-08-10T03:08:04.469Z,99.90
2022-08-10T03:08:47.861Z,99.90
2022-08-10T03:09:32.203Z,99.90
2022-08-10T03:10:23.295Z,99.90
2022-08-10T03:11:07.722Z,99.90
2022-08-10T03:12:37.805Z,99.90
2022-08-10T03:13:04.139Z,99.90
2022-08-10T03:13:52.447Z,99.90
2022-08-10T03:14:43.603Z,99.90
2022-08-10T03:15:27.196Z,99.90
2022-08-10T03:16:10.558Z,99.90
2022-08-10T03:16:55.408Z,99.90
2022-08-10T03:17:38.125Z,99.90
2022-08-10T03:18:22.765Z,99.90
2022-08-10T03:19:07.651Z,99.90
2022-08-10T03:20:37.955Z,99.90
2022-08-10T03:21:13.293Z,99.90
2022-08-10T03:21:56.747Z,99.90
2022-08-10T03:22:40.970Z,99.90
2022-08-10T03:23:24.641Z,99.90
2022-08-10T03:24:30.471Z,99.90
2022-08-10T03:25:12.574Z,99.90
2022-08-10T03:25:57.468Z,99.90
2022-08-10T03:26:39.705Z,99.90
2022-08-10T03:27:23.459Z,99.90
2022-08-10T03:28:06.324Z,99.90
2022-08-10T03:28:48.733Z,99.90
2022-08-10T03:30:29.882Z,99.90
2022-08-10T03:30:35.103Z,99.90
2022-08-10T03:31:18.179Z,99.90
2022-08-10T03:32:03.388Z,99.90
2022-08-10T03:32:45.685Z,99.90
2022-08-10T03:33:30.958Z,99.90
2022-08-10T03:34:22.318Z,99.90
2022-08-10T03:35:15.728Z,99.90
2022-08-10T03:36:43.987Z,99.90
2022-08-10T03:36:59.946Z,99.90
2022-08-10T03:37:42.153Z,99.90
2022-08-10T03:38:24.058Z,99.90
2022-08-10T03:39:05.924Z,99.90
2022-08-10T03:39:47.852Z,99.90
2022-08-10T03:40:45.308Z,99.90
2022-08-10T03:41:37.557Z,99.90
2022-08-10T03:42:20.621Z,99.90
2022-08-10T03:43:03.747Z,99.90
2022-08-10T03:43:48.877Z,99.90
2022-08-10T03:44:33.590Z,99.90
2022-08-10T03:45:17.150Z,99.90
2022-08-10T03:46:03.094Z,99.90
2022-08-10T03:46:46.962Z,99.90
2022-08-10T03:47:30.765Z,99.90
2022-08-10T03:48:12.933Z,99.90
2022-08-10T03:48:57.818Z,99.90
2022-08-10T03:49:42.738Z,99.90
2022-08-10T03:50:46.026Z,99.90
2022-08-10T03:51:29.151Z,99.90
2022-08-10T03:52:11.337Z,99.90
2022-08-10T03:52:54.103Z,99.90
2022-08-10T03:54:05.154Z,99.90
2022-08-10T03:54:38.112Z,99.90
2022-08-10T03:56:27.426Z,99.90
2022-08-10T03:56:30.381Z,99.90
2022-08-10T03:57:13.358Z,99.90
2022-08-10T03:57:55.196Z,99.90
2022-08-10T03:58:37.109Z,99.90
2022-08-10T03:59:19.009Z,99.90
2022-08-10T04:00:00.816Z,99.90
2022-08-10T04:00:43.645Z,99.90
2022-08-10T04:02:41.400Z,99.90
2022-08-10T04:02:45.243Z,99.90
2022-08-10T04:03:29.324Z,99.90
2022-08-10T04:04:13.865Z,99.90
2022-08-10T04:04:58.346Z,99.90
2022-08-10T04:05:40.175Z,99.90
2022-08-10T04:06:22.205Z,99.90
2022-08-10T04:07:04.905Z,99.90
2022-08-10T04:07:46.830Z,99.90
2022-08-10T04:08:28.867Z,99.90
2022-08-10T04:09:10.824Z,99.90
2022-08-10T04:09:55.277Z,99.90
2022-08-10T04:10:38.014Z,99.90
2022-08-10T04:11:19.829Z,99.90
2022-08-10T04:12:02.441Z,99.90
2022-08-10T04:12:44.133Z,99.90
2022-08-10T04:13:25.874Z,99.90
2022-08-10T04:14:38.136Z,99.90
2022-08-10T04:15:10.453Z,99.90
2022-08-10T04:15:52.174Z,99.90
2022-08-10T04:16:33.957Z,99.90
2022-08-10T04:17:15.663Z,99.90
2022-08-10T04:18:05.653Z,99.90
2022-08-10T04:18:48.164Z,99.90
2022-08-10T04:19:40.712Z,99.90
2022-08-10T04:20:30.978Z,99.90
2022-08-10T04:21:21.021Z,99.90
2022-08-10T04:22:12.448Z,99.90
2022-08-10T04:22:58.225Z,99.90
2022-08-10T04:23:49.917Z,99.90
2022-08-10T04:24:37.944Z,99.90
2022-08-10T04:25:22.559Z,99.90
2022-08-10T04:26:04.787Z,99.90
2022-08-10T04:26:46.992Z,99.90
2022-08-10T04:27:29.735Z,99.90
2022-08-10T04:28:12.014Z,99.90
2022-08-10T04:28:54.154Z,99.90
2022-08-10T04:29:36.375Z,99.90
2022-08-10T04:30:18.340Z,99.90
2022-08-10T04:31:03.324Z,99.90
2022-08-10T04:31:46.838Z,99.90
2022-08-10T04:32:31.476Z,99.90
2022-08-10T04:33:16.400Z,99.90
2022-08-10T04:33:59.414Z,99.90
2022-08-10T04:34:52.907Z,99.90
2022-08-10T04:35:35.143Z,99.90
2022-08-10T04:36:18.550Z,99.90
2022-08-10T04:37:08.650Z,99.90
2022-08-10T04:37:52.504Z,99.90
2022-08-10T04:38:36.073Z,99.90
2022-08-10T04:39:18.435Z,99.90
2022-08-10T04:40:01.493Z,99.90
2022-08-10T04:40:46.169Z,99.90
2022-08-10T04:41:28.702Z,99.90
2022-08-10T04:42:10.697Z,99.90
2022-08-10T04:42:52.922Z,99.90
2022-08-10T04:43:43.392Z,99.90
2022-08-10T04:44:25.155Z,99.90
2022-08-10T04:45:11.717Z,99.90
2022-08-10T04:45:53.459Z,99.90
2022-08-10T04:46:56.455Z,99.90
2022-08-10T04:47:57.282Z,99.90
2022-08-10T04:48:59.485Z,99.90
2022-08-10T04:49:56.340Z,99.90
2022-08-10T04:50:38.858Z,99.90
2022-08-10T04:51:20.556Z,99.90
2022-08-10T04:52:02.286Z,99.90
2022-08-10T04:52:44.206Z,99.90
2022-08-10T04:53:26.036Z,99.90
2022-08-10T04:54:08.410Z,99.90
2022-08-10T04:54:50.149Z,99.90
2022-08-10T04:55:32.035Z,99.90
2022-08-10T04:56:13.839Z,99.90
2022-08-10T04:56:55.680Z,99.90
2022-08-10T04:57:37.453Z,99.90
2022-08-10T04:58:19.457Z,99.90
2022-08-10T04:59:01.175Z,99.90
2022-08-10T04:59:42.904Z,99.90
2022-08-10T05:00:24.636Z,99.90
2022-08-10T05:01:06.467Z,99.90
2022-08-10T05:02:30.214Z,99.90
2022-08-10T05:02:50.737Z,99.90
2022-08-10T05:03:32.505Z,99.90
2022-08-10T05:04:35.285Z,99.90
2022-08-10T05:05:15.918Z,99.90
2022-08-10T05:05:57.626Z,99.90
2022-08-10T05:06:43.246Z,99.90
2022-08-10T05:07:24.983Z,99.90
2022-08-10T05:08:06.653Z,99.90
2022-08-10T05:08:48.375Z,99.90
2022-08-10T05:09:30.077Z,99.90
2022-08-10T05:10:13.605Z,99.90
2022-08-10T05:10:55.402Z,99.90
2022-08-10T05:11:37.106Z,99.90
2022-08-10T05:12:18.806Z,99.90
2022-08-10T05:13:00.490Z,99.90
2022-08-10T05:13:42.162Z,99.90
2022-08-10T05:14:23.884Z,99.90
2022-08-10T05:15:11.683Z,99.90
2022-08-10T05:15:53.619Z,99.90
2022-08-10T05:16:35.283Z,99.90
2022-08-10T05:17:16.970Z,99.90
2022-08-10T05:18:08.956Z,99.90
2022-08-10T05:18:53.158Z,99.90
2022-08-10T05:20:03.409Z,99.90
2022-08-10T05:20:36.874Z,99.90
2022-08-10T05:22:01.460Z,99.90
2022-08-10T05:22:20.277Z,99.90
2022-08-10T05:23:01.995Z,99.90
2022-08-10T05:23:43.681Z,99.90
2022-08-10T05:24:25.438Z,99.90
2022-08-10T05:25:10.799Z,99.90
2022-08-10T05:25:52.523Z,99.90
2022-08-10T05:26:35.981Z,99.90
2022-08-10T05:27:20.909Z,99.90
2022-08-10T05:28:06.221Z,99.90
2022-08-10T05:28:48.495Z,99.90
2022-08-10T05:29:30.262Z,99.90
2022-08-10T05:30:19.393Z,99.90
2022-08-10T05:31:01.246Z,99.90
2022-08-10T05:31:43.246Z,99.90
2022-08-10T05:32:24.974Z,99.90
2022-08-10T05:33:08.909Z,99.90
2022-08-10T05:33:50.910Z,99.90
2022-08-10T05:34:32.683Z,99.90
2022-08-10T05:35:14.565Z,99.90
2022-08-10T05:35:58.385Z,99.90
2022-08-10T05:36:41.856Z,99.90
2022-08-10T05:38:12.664Z,99.90
2022-08-10T05:38:27.344Z,99.90
2022-08-10T05:39:10.475Z,99.90
2022-08-10T05:39:54.380Z,99.90
2022-08-10T05:40:38.326Z,99.90
2022-08-10T05:41:20.791Z,99.90
2022-08-10T05:42:03.185Z,99.90
2022-08-10T05:42:44.989Z,99.90
2022-08-10T05:43:27.402Z,99.90
2022-08-10T05:44:09.342Z,99.90
2022-08-10T05:44:51.825Z,99.90
2022-08-10T05:45:33.908Z,99.90
2022-08-10T05:46:35.590Z,99.90
2022-08-10T05:47:17.846Z,99.90
2022-08-10T05:48:58.147Z,99.90
2022-08-10T05:49:02.048Z,99.90
2022-08-10T05:49:44.146Z,99.90
2022-08-10T05:50:27.842Z,99.90
2022-08-10T05:51:10.701Z,99.90
2022-08-10T05:51:52.571Z,99.90
2022-08-10T05:52:34.489Z,99.90
2022-08-10T05:53:59.643Z,99.90
2022-08-10T05:54:18.672Z,99.90
2022-08-10T05:55:02.892Z,99.90
2022-08-10T05:55:44.986Z,99.90
2022-08-10T05:56:27.206Z,99.90
2022-08-10T05:57:29.821Z,99.90
2022-08-10T05:58:11.651Z,99.90
2022-08-10T05:58:53.731Z,99.90
2022-08-10T06:00:33.914Z,99.90
2022-08-10T06:00:49.754Z,99.90
2022-08-10T06:01:34.361Z,99.90
2022-08-10T06:02:34.986Z,99.90
2022-08-10T06:03:24.179Z,99.90
2022-08-10T06:04:09.162Z,99.90
2022-08-10T06:04:52.105Z,99.90
2022-08-10T06:05:37.077Z,99.90
2022-08-10T06:06:24.834Z,99.90
2022-08-10T06:07:08.659Z,99.90
2022-08-10T06:07:59.753Z,99.90
2022-08-10T06:08:43.410Z,99.90
2022-08-10T06:09:27.598Z,99.90
2022-08-10T06:10:12.951Z,99.90
2022-08-10T06:12:24.130Z,99.90
2022-08-10T06:12:27.719Z,99.90
2022-08-10T06:13:26.747Z,99.90
2022-08-10T06:14:35.044Z,99.90
2022-08-10T06:15:26.470Z,99.90
2022-08-10T06:16:24.111Z,99.90
2022-08-10T06:17:06.742Z,99.90
2022-08-10T06:17:59.048Z,99.90
2022-08-10T06:18:44.965Z,99.90
2022-08-10T06:19:27.967Z,99.90
2022-08-10T06:20:11.305Z,99.90
2022-08-10T06:20:55.032Z,99.90
2022-08-10T06:21:37.978Z,99.90
2022-08-10T06:22:20.030Z,99.90
2022-08-10T06:23:03.711Z,99.90
2022-08-10T06:23:47.365Z,99.90
2022-08-10T06:24:31.300Z,99.90
2022-08-10T06:25:44.284Z,99.90
2022-08-10T06:26:19.636Z,99.90
2022-08-10T06:27:03.943Z,99.90
2022-08-10T06:27:47.941Z,99.90
2022-08-10T06:28:33.829Z,99.90
2022-08-10T06:29:16.700Z,99.90
2022-08-10T06:29:59.649Z,99.90
2022-08-10T06:30:43.203Z,99.90
2022-08-10T06:31:28.597Z,99.90
2022-08-10T06:32:29.711Z,99.90
2022-08-10T06:33:12.557Z,99.90
2022-08-10T06:33:56.127Z,99.90
2022-08-10T06:34:48.062Z,99.90
2022-08-10T06:35:33.119Z,99.90
2022-08-10T06:36:16.820Z,99.90
2022-08-10T06:37:02.631Z,99.90
2022-08-10T06:37:50.988Z,99.90
2022-08-10T06:38:35.034Z,99.90
2022-08-10T06:39:32.844Z,99.90
2022-08-10T06:40:15.184Z,99.90
2022-08-10T06:41:00.227Z,99.90
2022-08-10T06:41:57.843Z,99.90
2022-08-10T06:42:51.061Z,99.90
2022-08-10T06:43:35.196Z,99.90
2022-08-10T06:44:22.375Z,99.90
2022-08-10T06:45:17.670Z,99.90
2022-08-10T06:46:09.025Z,99.90
2022-08-10T06:46:54.311Z,99.90
2022-08-10T06:47:49.002Z,99.90
2022-08-10T06:48:39.000Z,99.90
2022-08-10T06:49:23.053Z,99.90
2022-08-10T06:50:44.627Z,99.90
2022-08-10T06:51:31.962Z,99.90
2022-08-10T06:52:18.373Z,99.90
2022-08-10T06:53:02.205Z,99.90
2022-08-10T06:53:52.214Z,99.90
2022-08-10T06:54:37.482Z,99.90
2022-08-10T06:55:22.298Z,99.90
2022-08-10T06:56:37.868Z,99.90
2022-08-10T06:57:28.162Z,99.90
2022-08-10T06:58:13.222Z,99.90
2022-08-10T06:59:00.598Z,99.90
2022-08-10T06:59:46.014Z,99.90
2022-08-10T07:00:34.429Z,99.90
2022-08-10T07:01:20.948Z,99.90
2022-08-10T07:02:07.507Z,99.90
2022-08-10T07:02:58.514Z,99.90
2022-08-10T07:03:47.224Z,99.90
2022-08-10T07:05:01.010Z,99.90
2022-08-10T07:05:51.020Z,99.90
2022-08-10T07:06:36.194Z,99.90
2022-08-10T07:07:20.290Z,99.90
2022-08-10T07:08:03.220Z,99.90
2022-08-10T07:08:46.157Z,99.90
2022-08-10T07:09:29.369Z,99.90
2022-08-10T07:10:13.107Z,99.90
2022-08-10T07:10:55.780Z,99.90
2022-08-10T07:11:38.590Z,99.90
2022-08-10T07:12:22.575Z,99.90
2022-08-10T07:13:06.514Z,99.90
2022-08-10T07:14:15.394Z,99.90
2022-08-10T07:14:52.462Z,99.90
2022-08-10T07:15:59.572Z,99.90
2022-08-10T07:16:42.540Z,99.90
2022-08-10T07:17:26.481Z,99.90
2022-08-10T07:18:09.069Z,99.90
2022-08-10T07:18:50.898Z,99.90
2022-08-10T07:19:33.752Z,99.90
2022-08-10T07:20:34.122Z,99.90
2022-08-10T07:21:18.818Z,99.90
2022-08-10T07:22:02.635Z,99.90
2022-08-10T07:23:01.374Z,99.90
2022-08-10T07:23:59.548Z,99.90
2022-08-10T07:24:43.687Z,99.90
2022-08-10T07:25:27.320Z,99.90
2022-08-10T07:26:09.935Z,99.90
2022-08-10T07:26:55.566Z,99.90
2022-08-10T07:27:59.974Z,99.90
2022-08-10T07:28:46.171Z,99.90
2022-08-10T07:29:54.042Z,99.90
2022-08-10T07:30:37.961Z,99.90
2022-08-10T07:31:55.156Z,99.90
2022-08-10T07:32:24.535Z,99.90
2022-08-10T07:33:08.356Z,99.90
2022-08-10T07:33:53.637Z,99.90
2022-08-10T07:34:37.621Z,99.90
2022-08-10T07:35:21.550Z,99.90
2022-08-10T07:36:04.286Z,99.90
2022-08-10T07:36:47.734Z,99.90
2022-08-10T07:37:31.505Z,99.90
2022-08-10T07:38:25.610Z,99.90
2022-08-10T07:39:09.493Z,99.90
2022-08-10T07:40:01.698Z,99.90
2022-08-10T07:40:47.278Z,99.90
2022-08-10T07:41:31.975Z,99.90
2022-08-10T07:42:16.532Z,99.90
2022-08-10T07:43:00.307Z,99.90
2022-08-10T07:43:43.397Z,99.90
2022-08-10T07:44:28.312Z,99.90
2022-08-10T07:45:10.599Z,99.90
2022-08-10T07:45:52.743Z,99.90
2022-08-10T07:46:36.164Z,99.90
2022-08-10T07:47:46.124Z,99.90
2022-08-10T07:48:36.006Z,99.90
2022-08-10T07:49:22.143Z,99.90
2022-08-10T07:50:07.426Z,99.90
2022-08-10T07:50:51.834Z,99.90
2022-08-10T07:51:33.644Z,99.90
2022-08-10T07:52:15.396Z,99.90
2022-08-10T07:53:02.473Z,99.90
2022-08-10T07:53:51.576Z,99.90
2022-08-10T07:54:40.397Z,99.90
2022-08-10T07:56:04.329Z,99.90
2022-08-10T07:56:48.031Z,99.90
2022-08-10T07:57:35.803Z,99.90
2022-08-10T07:58:34.236Z,99.90
2022-08-10T07:59:20.295Z,99.90
2022-08-10T08:00:05.867Z,99.90
2022-08-10T08:00:50.482Z,99.90
2022-08-10T08:01:35.646Z,99.90
2022-08-10T08:02:35.712Z,99.90
2022-08-10T08:03:24.983Z,99.90
2022-08-10T08:04:11.004Z,99.90
2022-08-10T08:04:55.926Z,99.90
2022-08-10T08:05:58.173Z,99.90
2022-08-10T08:06:42.414Z,99.90
2022-08-10T08:07:25.112Z,99.90
2022-08-10T08:08:07.624Z,99.90
2022-08-10T08:08:50.458Z,99.90
2022-08-10T08:09:33.588Z,99.90
2022-08-10T08:10:17.793Z,99.90
2022-08-10T08:11:00.740Z,99.90
2022-08-10T08:11:44.639Z,99.90
2022-08-10T08:12:27.760Z,99.90
2022-08-10T08:13:10.467Z,99.90
2022-08-10T08:13:55.148Z,99.90
2022-08-10T08:14:38.395Z,99.90
2022-08-10T08:16:16.797Z,99.90
2022-08-10T08:16:25.135Z,99.90
2022-08-10T08:17:08.874Z,99.90
2022-08-10T08:17:58.414Z,99.90
2022-08-10T08:18:58.373Z,99.90
2022-08-10T08:19:55.314Z,99.90
2022-08-10T08:20:39.376Z,99.90
2022-08-10T08:24:10.166Z,99.90
2022-08-10T08:24:15.600Z,99.90
2022-08-10T08:24:30.562Z,99.90
2022-08-10T08:24:34.992Z,99.90
2022-08-10T08:25:18.749Z,99.90
2022-08-10T08:26:01.437Z,99.90
2022-08-10T08:26:49.354Z,99.90
2022-08-10T08:27:36.807Z,99.90
2022-08-10T08:28:22.670Z,99.90
2022-08-10T08:29:05.494Z,99.90
2022-08-10T08:29:49.338Z,99.90
2022-08-10T08:30:31.961Z,99.90
2022-08-10T08:31:15.483Z,99.90
2022-08-10T08:32:02.463Z,99.90
2022-08-10T08:32:46.771Z,99.90
2022-08-10T08:33:41.861Z,99.90
2022-08-10T08:34:24.970Z,99.90
2022-08-10T08:35:10.036Z,99.90
2022-08-10T08:35:52.922Z,99.90
2022-08-10T08:36:38.982Z,99.90
2022-08-10T08:38:33.127Z,99.90
2022-08-10T08:38:33.562Z,99.90
2022-08-10T08:39:16.492Z,99.90
2022-08-10T08:39:58.330Z,99.90
2022-08-10T08:40:47.524Z,99.90
2022-08-10T08:41:47.935Z,99.90
2022-08-10T08:43:03.250Z,99.90
2022-08-10T08:44:14.307Z,99.90
2022-08-10T08:45:28.513Z,99.90
2022-08-10T08:46:13.028Z,99.90
2022-08-10T08:48:03.278Z,99.90
2022-08-10T08:48:24.189Z,99.90
2022-08-10T08:50:08.318Z,99.90
2022-08-10T08:51:13.651Z,99.90
2022-08-10T08:52:18.131Z,99.90
2022-08-10T08:54:01.902Z,99.90
2022-08-10T08:56:01.394Z,99.90
2022-08-10T08:56:31.129Z,99.90
2022-08-10T08:57:49.661Z,99.90
2022-08-10T08:58:49.456Z,99.50
2022-08-10T08:59:31.621Z,99.90
2022-08-10T09:00:30.235Z,99.90
2022-08-10T09:01:38.320Z,99.90
2022-08-10T09:02:28.733Z,99.90
2022-08-10T09:03:18.521Z,99.50
2022-08-10T09:04:34.272Z,99.90
2022-08-10T09:05:31.950Z,99.40
2022-08-10T09:06:45.753Z,99.60
2022-08-10T09:08:02.294Z,99.10
2022-08-10T09:09:09.851Z,98.80
2022-08-10T09:10:10.233Z,98.90
2022-08-10T09:10:57.757Z,98.90
2022-08-10T09:12:20.046Z,98.50
2022-08-10T09:13:16.040Z,99.10
2022-08-10T09:14:08.713Z,99.50
2022-08-10T09:15:06.089Z,99.90
2022-08-10T09:15:58.623Z,99.90
2022-08-10T09:16:53.161Z,98.80
2022-08-10T09:17:41.065Z,99.90
2022-08-10T09:18:37.111Z,99.90
2022-08-10T09:19:43.715Z,99.90
2022-08-10T09:20:47.943Z,99.00
2022-08-10T09:22:10.758Z,99.90
2022-08-10T09:23:01.769Z,98.60
2022-08-10T09:24:14.728Z,99.90
2022-08-10T09:25:09.899Z,99.90
2022-08-10T09:26:02.597Z,98.40
2022-08-10T09:26:50.942Z,99.60
2022-08-10T09:27:43.469Z,98.80
2022-08-10T09:28:27.530Z,99.00
2022-08-10T09:29:13.669Z,99.90
2022-08-10T09:30:00.252Z,99.50
2022-08-10T09:31:03.945Z,99.80
2022-08-10T09:36:17.346Z,99.90
2022-08-10T09:36:22.614Z,98.30
2022-08-10T09:36:22.961Z,99.40
2022-08-10T09:36:29.225Z,97.70
2022-08-10T09:37:39.290Z,97.60
2022-08-10T09:38:59.870Z,97.40
2022-08-10T09:40:48.448Z,97.70
2022-08-10T09:41:26.920Z,99.00
2022-08-10T09:42:23.030Z,98.20
2022-08-10T09:43:26.708Z,99.00
2022-08-10T09:44:20.397Z,98.20
2022-08-10T09:45:24.088Z,97.50
2022-08-10T09:46:27.846Z,97.60
2022-08-10T09:47:18.636Z,97.90
2022-08-10T09:48:35.251Z,98.20
2022-08-10T09:49:52.949Z,96.40
2022-08-10T09:50:42.908Z,95.50
2022-08-10T09:51:47.978Z,97.70
2022-08-10T09:53:03.369Z,95.10
2022-08-10T09:53:56.418Z,95.40
2022-08-10T09:55:05.553Z,97.00
2022-08-10T09:56:18.508Z,96.20
2022-08-10T09:57:43.457Z,97.10
2022-08-10T09:58:40.166Z,96.00
2022-08-10T10:00:00.350Z,97.80
2022-08-10T10:00:40.443Z,95.40
2022-08-10T10:02:00.601Z,97.30
2022-08-10T10:02:43.228Z,96.90
2022-08-10T10:03:47.118Z,96.10
2022-08-10T10:04:47.494Z,94.80
2022-08-10T10:05:55.666Z,96.10
2022-08-10T10:06:45.901Z,96.10
2022-08-10T10:07:29.393Z,96.20
2022-08-10T10:08:31.230Z,96.20
2022-08-10T10:09:28.573Z,94.70
2022-08-10T10:10:19.423Z,95.50
2022-08-10T10:11:21.639Z,97.00
2022-08-10T10:12:42.083Z,93.50
2022-08-10T10:14:03.155Z,93.50
2022-08-10T10:15:24.681Z,94.60
2022-08-10T10:16:16.676Z,95.00
2022-08-10T10:17:21.006Z,96.10
2022-08-10T10:18:02.808Z,94.70
2022-08-10T10:18:52.801Z,94.80
2022-08-10T10:19:44.348Z,94.40
2022-08-10T10:20:52.866Z,93.00
2022-08-10T10:21:56.015Z,94.00
2022-08-10T10:23:01.316Z,93.60
2022-08-10T10:24:19.878Z,93.90
2022-08-10T10:25:50.786Z,94.40
2022-08-10T10:26:46.672Z,95.10
2022-08-10T10:27:48.084Z,92.50
2022-08-10T10:29:19.759Z,94.30
2022-08-10T10:30:18.992Z,93.30
2022-08-10T10:31:20.871Z,91.80
2022-08-10T10:32:40.258Z,94.40
2022-08-10T10:33:46.648Z,93.70
2022-08-10T10:34:47.879Z,93.40
2022-08-10T10:35:43.525Z,92.80
2022-08-10T10:36:27.677Z,93.00
2022-08-10T10:37:10.416Z,94.40
2022-08-10T10:38:01.150Z,93.90
2022-08-10T10:38:46.192Z,93.00
2022-08-10T10:39:30.592Z,92.70
2022-08-10T10:40:14.500Z,93.70
2022-08-10T10:41:13.216Z,93.10
2022-08-10T10:42:04.607Z,94.10
2022-08-10T10:43:05.498Z,91.50
2022-08-10T10:44:13.129Z,91.70
2022-08-10T10:45:18.183Z,93.10